createdAt,value
2018-09-14T00:00:56.231Z,13.49
2018-09-14T00:01:56.112Z,13.51
2018-09-14T00:02:55.990Z,13.46
2018-09-14T00:03:55.863Z,13.40
2018-09-14T00:04:55.743Z,13.41
2018-09-14T00:05:55.618Z,13.46
2018-09-14T00:06:55.497Z,13.44
2018-09-14T00:07:55.373Z,13.33
2018-09-14T00:08:55.248Z,13.33
2018-09-14T00:09:55.129Z,13.36
2018-09-14T00:10:55.005Z,13.40
2018-09-14T00:11:54.880Z,13.44
2018-09-14T00:12:54.759Z,13.47
2018-09-14T00:13:54.635Z,13.49
2018-09-14T00:14:54.512Z,13.43
2018-09-14T00:15:54.387Z,13.51
2018-09-14T00:16:54.264Z,13.40
2018-09-14T00:17:54.142Z,13.54
2018-09-14T00:18:54.022Z,13.55
2018-09-14T00:19:53.897Z,13.51
2018-09-14T00:20:53.773Z,13.59
2018-09-14T00:21:53.649Z,13.56
2018-09-14T00:22:53.527Z,13.69
2018-09-14T00:23:53.402Z,13.58
2018-09-14T00:24:53.281Z,13.49
2018-09-14T00:25:53.158Z,13.36
2018-09-14T00:26:53.035Z,13.18
2018-09-14T00:27:52.911Z,13.06
2018-09-14T00:28:52.790Z,12.99
2018-09-14T00:29:52.666Z,12.88
2018-09-14T00:30:52.551Z,12.93
2018-09-14T00:31:52.418Z,12.85
2018-09-14T00:32:52.295Z,12.75
2018-09-14T00:33:52.173Z,12.74
2018-09-14T00:34:52.052Z,12.64
2018-09-14T00:35:51.926Z,12.60
2018-09-14T00:36:51.804Z,12.62
2018-09-14T00:37:51.681Z,12.59
2018-09-14T00:38:51.558Z,12.62
2018-09-14T00:39:51.433Z,12.60
2018-09-14T00:40:51.312Z,12.56
2018-09-14T00:41:51.190Z,12.57
2018-09-14T00:42:51.115Z,12.51
2018-09-14T00:43:50.942Z,12.54
2018-09-14T00:44:50.835Z,12.57
2018-09-14T00:45:50.698Z,12.59
2018-09-14T00:46:50.571Z,12.59
2018-09-14T00:47:50.447Z,12.63
2018-09-14T00:48:50.326Z,12.64
2018-09-14T00:49:50.203Z,12.71
2018-09-14T00:50:50.082Z,12.75
2018-09-14T00:51:49.955Z,12.84
2018-09-14T00:52:49.830Z,12.78
2018-09-14T00:53:49.707Z,12.81
2018-09-14T00:54:49.586Z,12.85
2018-09-14T00:55:49.462Z,12.92
2018-09-14T00:56:49.338Z,13.00
2018-09-14T00:57:49.216Z,13.03
2018-09-14T00:58:49.094Z,13.02
2018-09-14T00:59:48.968Z,13.11
2018-09-14T01:00:48.845Z,13.06
2018-09-14T01:01:48.721Z,13.02
2018-09-14T01:02:48.601Z,13.00
2018-09-14T01:03:48.475Z,12.99
2018-09-14T01:04:48.352Z,13.03
2018-09-14T01:05:48.232Z,13.11
2018-09-14T01:06:48.111Z,13.03
2018-09-14T01:07:47.984Z,13.18
2018-09-14T01:08:47.860Z,13.22
2018-09-14T01:09:47.740Z,13.17
2018-09-14T01:10:47.616Z,13.32
2018-09-14T01:11:47.494Z,13.32
2018-09-14T01:12:47.367Z,13.36
2018-09-14T01:13:47.246Z,13.27
2018-09-14T01:14:47.121Z,13.29
2018-09-14T01:15:47.000Z,13.24
2018-09-14T01:16:46.876Z,13.32
2018-09-14T01:17:46.756Z,13.30
2018-09-14T01:18:46.630Z,13.30
2018-09-14T01:19:46.507Z,13.21
2018-09-14T01:20:46.385Z,13.22
2018-09-14T01:21:46.262Z,13.25
2018-09-14T01:22:46.137Z,13.21
2018-09-14T01:23:46.015Z,13.30
2018-09-14T01:24:45.890Z,13.25
2018-09-14T01:25:45.768Z,13.40
2018-09-14T01:26:45.646Z,13.37
2018-09-14T01:27:45.527Z,13.36
2018-09-14T01:28:45.399Z,13.33
2018-09-14T01:29:45.278Z,13.30
2018-09-14T01:30:45.157Z,13.32
2018-09-14T01:31:45.030Z,13.38
2018-09-14T01:32:44.906Z,13.36
2018-09-14T01:33:44.787Z,13.21
2018-09-14T01:34:44.661Z,13.15
2018-09-14T01:35:44.537Z,13.18
2018-09-14T01:36:44.421Z,13.03
2018-09-14T01:37:44.294Z,13.07
2018-09-14T01:38:44.175Z,13.09
2018-09-14T01:39:44.047Z,13.03
2018-09-14T01:40:43.923Z,13.12
2018-09-14T01:41:43.802Z,13.06
2018-09-14T01:42:43.675Z,13.03
2018-09-14T01:43:43.552Z,13.09
2018-09-14T01:44:43.454Z,13.04
2018-09-14T01:45:43.305Z,13.11
2018-09-14T01:46:43.186Z,13.12
2018-09-14T01:47:43.061Z,13.15
2018-09-14T01:48:42.939Z,13.14
2018-09-14T01:49:42.815Z,13.14
2018-09-14T01:50:42.691Z,13.15
2018-09-14T01:51:42.567Z,13.14
2018-09-14T01:52:42.445Z,13.15
2018-09-14T01:53:42.322Z,13.15
2018-09-14T01:54:42.198Z,13.15
2018-09-14T01:55:42.073Z,13.24
2018-09-14T01:56:41.952Z,13.25
2018-09-14T01:57:41.831Z,13.33
2018-09-14T01:58:41.706Z,13.36
2018-09-14T01:59:41.582Z,13.33
2018-09-14T02:00:41.459Z,13.32
2018-09-14T02:01:41.334Z,13.37
2018-09-14T02:02:41.216Z,13.36
2018-09-14T02:03:41.088Z,13.33
2018-09-14T02:04:40.965Z,13.40
2018-09-14T02:05:40.842Z,13.36
2018-09-14T02:06:40.719Z,13.36
2018-09-14T02:07:40.598Z,13.41
2018-09-14T02:08:40.474Z,13.51
2018-09-14T02:09:40.351Z,13.44
2018-09-14T02:10:40.227Z,13.51
2018-09-14T02:11:40.105Z,13.58
2018-09-14T02:12:39.986Z,13.55
2018-09-14T02:13:39.857Z,13.58
2018-09-14T02:14:39.735Z,13.33
2018-09-14T02:15:39.614Z,13.20
2018-09-14T02:16:39.489Z,13.24
2018-09-14T02:17:39.369Z,13.25
2018-09-14T02:18:39.247Z,13.22
2018-09-14T02:19:39.121Z,13.18
2018-09-14T02:20:39.000Z,13.27
2018-09-14T02:21:38.876Z,13.25
2018-09-14T02:22:38.754Z,13.29
2018-09-14T02:23:38.629Z,13.14
2018-09-14T02:24:38.506Z,12.95
2018-09-14T02:25:38.424Z,12.70
2018-09-14T02:26:38.261Z,12.71
2018-09-14T02:27:38.138Z,12.77
2018-09-14T02:28:38.018Z,12.67
2018-09-14T02:29:37.891Z,12.64
2018-09-14T02:30:37.770Z,12.54
2018-09-14T02:31:37.646Z,12.51
2018-09-14T02:32:37.524Z,12.42
2018-09-14T02:33:37.403Z,12.45
2018-09-14T02:34:37.276Z,12.45
2018-09-14T02:35:37.159Z,12.42
2018-09-14T02:36:37.029Z,12.45
2018-09-14T02:37:36.906Z,12.49
2018-09-14T02:38:36.785Z,12.56
2018-09-14T02:39:36.658Z,12.64
2018-09-14T02:40:36.535Z,12.57
2018-09-14T02:41:36.411Z,12.66
2018-09-14T02:42:36.290Z,12.63
2018-09-14T02:43:36.165Z,12.64
2018-09-14T02:44:36.043Z,12.66
2018-09-14T02:45:35.918Z,12.67
2018-09-14T02:46:35.794Z,12.66
2018-09-14T02:47:35.671Z,12.84
2018-09-14T02:48:35.552Z,12.78
2018-09-14T02:49:35.424Z,12.82
2018-09-14T02:50:35.303Z,12.93
2018-09-14T02:51:35.179Z,12.85
2018-09-14T02:52:35.054Z,12.75
2018-09-14T02:53:34.933Z,12.75
2018-09-14T02:54:34.809Z,12.67
2018-09-14T02:55:34.685Z,12.66
2018-09-14T02:56:34.562Z,12.75
2018-09-14T02:57:34.448Z,12.75
2018-09-14T02:58:34.318Z,12.78
2018-09-14T02:59:34.192Z,12.84
2018-09-14T03:00:34.069Z,12.82
2018-09-14T03:01:33.952Z,12.74
2018-09-14T03:02:33.823Z,12.67
2018-09-14T03:03:33.699Z,12.63
2018-09-14T03:04:33.576Z,12.45
2018-09-14T03:05:33.461Z,12.42
2018-09-14T03:06:33.330Z,12.31
2018-09-14T03:07:33.205Z,12.44
2018-09-14T03:08:33.083Z,12.49
2018-09-14T03:09:32.961Z,12.52
2018-09-14T03:10:32.836Z,12.62
2018-09-14T03:11:32.717Z,12.66
2018-09-14T03:12:32.590Z,12.57
2018-09-14T03:13:32.467Z,12.57
2018-09-14T03:14:32.343Z,12.56
2018-09-14T03:15:32.219Z,12.56
2018-09-14T03:16:32.096Z,12.48
2018-09-14T03:17:31.975Z,12.45
2018-09-14T03:18:31.852Z,12.48
2018-09-14T03:19:31.726Z,12.42
2018-09-14T03:20:31.603Z,12.41
2018-09-14T03:21:31.479Z,12.49
2018-09-14T03:22:31.361Z,12.51
2018-09-14T03:23:31.232Z,12.59
2018-09-14T03:24:31.107Z,12.62
2018-09-14T03:25:30.985Z,12.62
2018-09-14T03:26:30.862Z,12.62
2018-09-14T03:27:30.743Z,12.67
2018-09-14T03:28:30.615Z,12.74
2018-09-14T03:29:30.495Z,12.78
2018-09-14T03:30:30.369Z,12.82
2018-09-14T03:31:30.251Z,12.78
2018-09-14T03:32:30.125Z,12.84
2018-09-14T03:33:29.998Z,12.81
2018-09-14T03:34:29.877Z,12.88
2018-09-14T03:35:29.754Z,12.84
2018-09-14T03:36:29.627Z,12.85
2018-09-14T03:37:29.506Z,12.84
2018-09-14T03:38:29.383Z,12.89
2018-09-14T03:39:29.262Z,12.81
2018-09-14T03:40:29.145Z,12.85
2018-09-14T03:41:29.013Z,12.79
2018-09-14T03:42:28.888Z,12.88
2018-09-14T03:43:28.762Z,12.82
2018-09-14T03:44:28.640Z,12.97
2018-09-14T03:45:28.517Z,12.85
2018-09-14T03:46:28.398Z,12.85
2018-09-14T03:47:28.271Z,12.92
2018-09-14T03:48:28.147Z,12.89
2018-09-14T03:49:28.025Z,12.92
2018-09-14T03:50:27.901Z,12.87
2018-09-14T03:51:27.778Z,12.89
2018-09-14T03:52:27.654Z,12.93
2018-09-14T03:53:27.529Z,12.89
2018-09-14T03:54:27.409Z,12.89
2018-09-14T03:55:27.285Z,12.95
2018-09-14T03:56:27.157Z,12.85
2018-09-14T03:57:27.147Z,12.82
2018-09-14T03:58:26.916Z,12.78
2018-09-14T03:59:26.793Z,12.77
2018-09-14T04:00:26.669Z,12.71
2018-09-14T04:01:26.542Z,12.77
2018-09-14T04:02:26.419Z,12.75
2018-09-14T04:03:26.296Z,12.67
2018-09-14T04:04:26.174Z,12.74
2018-09-14T04:05:26.047Z,12.78
2018-09-14T04:06:25.928Z,12.75
2018-09-14T04:07:25.803Z,12.84
2018-09-14T04:08:25.677Z,12.81
2018-09-14T04:09:25.553Z,12.85
2018-09-14T04:10:25.432Z,12.81
2018-09-14T04:11:25.310Z,12.82
2018-09-14T04:12:25.186Z,12.81
2018-09-14T04:13:25.061Z,12.81
2018-09-14T04:14:24.935Z,12.81
2018-09-14T04:15:24.849Z,12.77
2018-09-14T04:16:24.688Z,12.75
2018-09-14T04:17:24.567Z,12.79
2018-09-14T04:18:24.476Z,12.79
2018-09-14T04:19:24.318Z,12.74
2018-09-14T04:20:24.196Z,12.62
2018-09-14T04:21:24.076Z,12.63
2018-09-14T04:22:23.976Z,12.66
2018-09-14T04:23:23.875Z,12.71
2018-09-14T04:24:23.701Z,12.71
2018-09-14T04:25:23.578Z,12.78
2018-09-14T04:26:23.455Z,12.81
2018-09-14T04:27:23.333Z,12.71
2018-09-14T04:28:23.210Z,12.75
2018-09-14T04:29:23.117Z,12.75
2018-09-14T04:30:22.967Z,12.75
2018-09-14T04:31:22.837Z,12.64
2018-09-14T04:32:22.716Z,12.49
2018-09-14T04:33:22.592Z,12.45
2018-09-14T04:34:22.469Z,12.37
2018-09-14T04:35:22.349Z,12.33
2018-09-14T04:36:22.222Z,12.37
2018-09-14T04:37:22.112Z,12.41
2018-09-14T04:38:22.031Z,12.37
2018-09-14T04:39:21.852Z,12.41
2018-09-14T04:40:21.728Z,12.48
2018-09-14T04:41:21.612Z,12.54
2018-09-14T04:42:21.484Z,12.52
2018-09-14T04:43:21.360Z,12.64
2018-09-14T04:44:21.236Z,12.57
2018-09-14T04:45:21.125Z,12.52
2018-09-14T04:46:20.990Z,12.49
2018-09-14T04:47:20.864Z,12.48
2018-09-14T04:48:20.771Z,12.57
2018-09-14T04:49:20.618Z,12.62
2018-09-14T04:50:20.495Z,12.66
2018-09-14T04:51:20.405Z,12.62
2018-09-14T04:52:20.249Z,12.51
2018-09-14T04:53:20.126Z,12.46
2018-09-14T04:54:20.002Z,12.33
2018-09-14T04:55:19.880Z,12.46
2018-09-14T04:56:19.754Z,12.46
2018-09-14T04:57:19.661Z,12.33
2018-09-14T04:58:19.509Z,12.31
2018-09-14T04:59:19.385Z,12.20
2018-09-14T05:00:19.261Z,12.12
2018-09-14T05:01:19.136Z,12.04
2018-09-14T05:02:19.016Z,12.08
2018-09-14T05:03:18.908Z,12.02
2018-09-14T05:04:18.770Z,11.89
2018-09-14T05:05:18.642Z,11.85
2018-09-14T05:06:18.529Z,11.82
2018-09-14T05:07:18.394Z,11.80
2018-09-14T05:08:18.275Z,11.87
2018-09-14T05:09:18.148Z,11.87
2018-09-14T05:10:18.023Z,11.90
2018-09-14T05:11:17.901Z,11.90
2018-09-14T05:12:17.775Z,11.89
2018-09-14T05:13:17.651Z,11.83
2018-09-14T05:14:17.570Z,11.85
2018-09-14T05:15:17.403Z,11.87
2018-09-14T05:16:17.279Z,12.04
2018-09-14T05:17:17.157Z,11.99
2018-09-14T05:18:17.033Z,11.85
2018-09-14T05:19:16.907Z,11.82
2018-09-14T05:20:16.783Z,11.86
2018-09-14T05:21:16.660Z,11.83
2018-09-14T05:22:16.534Z,11.86
2018-09-14T05:23:16.412Z,11.93
2018-09-14T05:24:16.325Z,11.89
2018-09-14T05:25:16.163Z,12.02
2018-09-14T05:26:16.041Z,11.99
2018-09-14T05:27:15.914Z,12.02
2018-09-14T05:28:15.792Z,12.13
2018-09-14T05:29:15.665Z,12.08
2018-09-14T05:30:15.542Z,12.11
2018-09-14T05:31:15.420Z,12.13
2018-09-14T05:32:15.298Z,12.12
2018-09-14T05:33:15.172Z,12.23
2018-09-14T05:34:15.048Z,12.27
2018-09-14T05:35:14.923Z,12.23
2018-09-14T05:36:14.805Z,12.34
2018-09-14T05:37:14.676Z,12.33
2018-09-14T05:38:14.578Z,12.33
2018-09-14T05:39:14.428Z,12.34
2018-09-14T05:40:14.304Z,12.33
2018-09-14T05:41:14.180Z,12.45
2018-09-14T05:42:14.058Z,12.23
2018-09-14T05:43:13.933Z,12.44
2018-09-14T05:44:13.814Z,12.38
2018-09-14T05:45:13.687Z,12.37
2018-09-14T05:46:13.563Z,12.39
2018-09-14T05:47:13.447Z,12.33
2018-09-14T05:48:13.313Z,12.31
2018-09-14T05:49:13.194Z,12.33
2018-09-14T05:50:13.066Z,12.31
2018-09-14T05:51:12.944Z,12.26
2018-09-14T05:52:12.827Z,12.37
2018-09-14T05:53:12.698Z,12.29
2018-09-14T05:54:12.571Z,12.38
2018-09-14T05:55:12.449Z,12.39
2018-09-14T05:56:12.325Z,12.37
2018-09-14T05:57:12.203Z,12.48
2018-09-14T05:58:12.080Z,12.49
2018-09-14T05:59:11.953Z,12.60
2018-09-14T06:00:11.834Z,12.67
2018-09-14T06:01:11.708Z,12.64
2018-09-14T06:02:11.586Z,12.64
2018-09-14T06:03:11.460Z,12.70
2018-09-14T06:04:11.339Z,12.78
2018-09-14T06:05:11.212Z,12.78
2018-09-14T06:06:11.090Z,12.74
2018-09-14T06:07:10.968Z,12.85
2018-09-14T06:08:10.842Z,12.95
2018-09-14T06:09:10.720Z,12.89
2018-09-14T06:10:10.597Z,12.87
2018-09-14T06:11:10.474Z,12.96
2018-09-14T06:12:10.349Z,12.96
2018-09-14T06:13:10.225Z,12.99
2018-09-14T06:14:10.151Z,13.03
2018-09-14T06:15:09.979Z,13.03
2018-09-14T06:16:09.856Z,13.07
2018-09-14T06:17:09.791Z,13.12
2018-09-14T06:18:09.607Z,13.15
2018-09-14T06:19:09.483Z,13.20
2018-09-14T06:20:09.363Z,13.24
2018-09-14T06:21:09.240Z,13.18
2018-09-14T06:22:09.114Z,13.21
2018-09-14T06:23:09.074Z,13.24
2018-09-14T06:24:08.866Z,13.22
2018-09-14T06:25:08.744Z,13.25
2018-09-14T06:26:08.622Z,13.27
2018-09-14T06:27:08.497Z,13.29
2018-09-14T06:28:08.373Z,13.36
2018-09-14T06:29:08.252Z,13.36
2018-09-14T06:30:08.127Z,13.43
2018-09-14T06:31:08.003Z,13.43
2018-09-14T06:32:07.882Z,13.41
2018-09-14T06:33:07.761Z,13.52
2018-09-14T06:34:07.635Z,13.49
2018-09-14T06:35:07.511Z,13.51
2018-09-14T06:36:07.385Z,13.33
2018-09-14T06:37:07.265Z,13.43
2018-09-14T06:38:07.165Z,13.56
2018-09-14T06:39:07.017Z,13.62
2018-09-14T06:40:06.893Z,13.59
2018-09-14T06:41:06.770Z,13.54
2018-09-14T06:42:06.649Z,13.70
2018-09-14T06:43:06.524Z,13.73
2018-09-14T06:44:06.400Z,13.70
2018-09-14T06:45:06.349Z,13.76
2018-09-14T06:46:06.155Z,13.84
2018-09-14T06:47:06.030Z,13.84
2018-09-14T06:48:05.908Z,13.89
2018-09-14T06:49:05.786Z,13.80
2018-09-14T06:50:05.664Z,13.80
2018-09-14T06:51:05.539Z,13.89
2018-09-14T06:52:05.477Z,13.81
2018-09-14T06:53:05.295Z,13.80
2018-09-14T06:54:05.206Z,13.80
2018-09-14T06:55:05.046Z,13.83
2018-09-14T06:56:04.921Z,13.79
2018-09-14T06:57:04.800Z,13.80
2018-09-14T06:58:04.677Z,13.80
2018-09-14T06:59:04.554Z,13.80
2018-09-14T07:00:04.437Z,13.77
2018-09-14T07:01:04.315Z,13.74
2018-09-14T07:02:04.184Z,13.77
2018-09-14T07:03:04.062Z,13.81
2018-09-14T07:04:03.939Z,13.94
2018-09-14T07:05:03.816Z,14.06
2018-09-14T07:06:03.693Z,14.16
2018-09-14T07:07:03.568Z,14.31
2018-09-14T07:08:03.447Z,14.42
2018-09-14T07:09:03.325Z,14.35
2018-09-14T07:10:03.201Z,14.32
2018-09-14T07:11:03.082Z,14.49
2018-09-14T07:12:02.955Z,14.39
2018-09-14T07:13:02.849Z,14.50
2018-09-14T07:14:02.711Z,14.44
2018-09-14T07:15:02.584Z,14.54
2018-09-14T07:16:02.468Z,14.64
2018-09-14T07:17:02.339Z,14.44
2018-09-14T07:18:02.220Z,14.31
2018-09-14T07:27:04.984Z,14.17
2018-09-14T07:28:04.800Z,14.19
2018-09-14T07:29:57.500Z,14.35
2018-09-14T07:30:57.342Z,14.52
2018-09-14T07:32:50.034Z,14.56
2018-09-14T07:33:49.873Z,14.57
2018-09-14T07:35:42.540Z,14.72
2018-09-14T07:36:42.410Z,14.81
2018-09-14T07:38:35.109Z,14.80
2018-09-14T07:39:34.948Z,14.95
2018-09-14T07:41:27.650Z,15.60
2018-09-14T07:42:27.551Z,15.79
2018-09-14T07:44:20.202Z,16.35
2018-09-14T07:45:20.040Z,16.48
2018-09-14T07:47:12.732Z,16.88
2018-09-14T07:48:12.663Z,16.83
2018-09-14T07:50:05.298Z,16.50
2018-09-14T07:51:05.140Z,16.30
2018-09-14T07:52:57.812Z,15.93
2018-09-14T07:53:57.680Z,15.75
2018-09-14T07:55:50.387Z,15.72
2018-09-14T07:56:50.220Z,15.57
2018-09-14T07:58:42.893Z,15.54
2018-09-14T07:59:42.766Z,15.67
2018-09-14T08:01:35.468Z,15.66
2018-09-14T08:02:35.309Z,15.67
2018-09-14T08:04:28.037Z,15.51
2018-09-14T08:05:27.879Z,15.59
2018-09-14T08:07:20.607Z,15.66
2018-09-14T08:08:20.435Z,15.51
2018-09-14T08:10:13.107Z,15.54
2018-09-14T08:11:12.980Z,15.36
2018-09-14T08:13:05.719Z,15.49
2018-09-14T08:14:05.517Z,15.31
2018-09-14T08:15:58.218Z,15.48
2018-09-14T08:16:58.061Z,15.49
2018-09-14T08:18:50.782Z,15.49
2018-09-14T08:19:50.623Z,15.41
2018-09-14T08:21:43.469Z,15.61
2018-09-14T08:22:43.235Z,15.74
2018-09-14T08:24:35.972Z,15.60
2018-09-14T08:25:35.816Z,15.85
2018-09-14T08:27:28.524Z,15.92
2018-09-14T08:28:28.367Z,15.94
2018-09-14T08:30:21.047Z,15.93
2018-09-14T08:31:20.925Z,15.93
2018-09-14T08:33:13.694Z,15.84
2018-09-14T08:34:13.534Z,15.76
2018-09-14T08:36:06.250Z,15.42
2018-09-14T08:37:06.090Z,15.36
2018-09-14T08:38:58.818Z,15.11
2018-09-14T08:39:58.700Z,14.99
2018-09-14T08:41:52.243Z,15.01
2018-09-14T08:42:52.084Z,15.02
2018-09-14T08:44:44.775Z,15.23
2018-09-14T08:45:44.646Z,15.31
2018-09-14T08:47:37.355Z,15.28
2018-09-14T08:48:37.196Z,15.30
2018-09-14T08:50:29.872Z,15.30
2018-09-14T08:51:29.741Z,15.42
2018-09-14T08:53:22.441Z,15.57
2018-09-14T08:54:22.284Z,15.54
2018-09-14T08:56:14.961Z,15.63
2018-09-14T08:57:14.828Z,15.64
2018-09-14T08:59:07.536Z,15.85
2018-09-14T09:00:07.366Z,15.89
2018-09-14T09:02:00.069Z,15.97
2018-09-14T09:02:59.908Z,16.07
2018-09-14T09:04:52.575Z,16.01
2018-09-14T09:05:52.448Z,16.16
2018-09-14T09:07:45.152Z,16.80
2018-09-14T09:08:44.990Z,16.80
2018-09-14T09:10:37.662Z,17.10
2018-09-14T09:11:37.533Z,17.33
2018-09-14T09:13:30.238Z,17.28
2018-09-14T09:14:30.083Z,17.29
2018-09-14T09:16:22.751Z,17.55
2018-09-14T09:17:22.618Z,17.92
2018-09-14T09:19:15.327Z,18.42
2018-09-14T09:20:15.161Z,18.87
2018-09-14T09:22:07.859Z,19.02
2018-09-14T09:23:07.703Z,19.35
2018-09-14T09:25:00.388Z,20.02
2018-09-14T09:26:00.261Z,20.13
2018-09-14T09:27:52.986Z,20.27
2018-09-14T09:28:52.832Z,20.43
2018-09-14T09:29:52.713Z,20.49
2018-09-14T09:30:52.592Z,20.56
2018-09-14T09:31:52.473Z,20.24
2018-09-14T09:32:52.356Z,19.60
2018-09-14T09:33:52.235Z,19.80
2018-09-14T09:34:52.119Z,19.80
2018-09-14T09:35:52.000Z,20.16
2018-09-14T09:36:51.881Z,20.42
2018-09-14T09:37:51.762Z,20.58
2018-09-14T09:38:51.645Z,20.42
2018-09-14T09:39:51.525Z,20.30
2018-09-14T09:40:51.406Z,20.06
2018-09-14T09:41:51.290Z,20.09
2018-09-14T09:42:51.170Z,20.27
2018-09-14T09:43:51.059Z,20.47
2018-09-14T09:44:50.935Z,20.54
2018-09-14T09:45:50.818Z,20.50
2018-09-14T09:46:50.700Z,20.30
2018-09-14T09:47:50.582Z,20.47
2018-09-14T09:48:50.465Z,20.49
2018-09-14T09:49:50.347Z,20.16
2018-09-14T09:50:50.275Z,20.50
2018-09-14T09:51:50.113Z,21.06
2018-09-14T09:52:50.000Z,21.11
2018-09-14T09:53:49.875Z,20.74
2018-09-14T09:54:49.762Z,20.72
2018-09-14T09:55:49.641Z,21.02
2018-09-14T09:56:49.575Z,21.34
2018-09-14T09:57:49.405Z,21.38
2018-09-14T09:58:49.289Z,21.23
2018-09-14T09:59:49.171Z,21.14
2018-09-14T10:00:49.055Z,21.14
2018-09-14T10:01:48.938Z,20.54
2018-09-14T10:02:48.824Z,20.42
2018-09-14T10:03:48.813Z,20.38
2018-09-14T10:04:48.586Z,20.35
2018-09-14T10:05:48.469Z,20.21
2018-09-14T10:06:48.352Z,19.69
2018-09-14T10:07:48.235Z,19.51
2018-09-14T10:08:48.116Z,19.47
2018-09-14T10:09:47.999Z,19.31
2018-09-14T10:10:47.882Z,19.23
2018-09-14T10:11:47.762Z,19.08
2018-09-14T10:12:47.646Z,19.02
2018-09-14T10:13:47.528Z,18.65
2018-09-14T10:14:47.408Z,18.67
2018-09-14T10:15:47.288Z,18.49
2018-09-14T10:16:47.171Z,18.46
2018-09-14T10:17:47.051Z,18.31
2018-09-14T10:18:46.933Z,18.33
2018-09-14T10:19:46.815Z,18.36
2018-09-14T10:20:46.747Z,18.49
2018-09-14T10:21:46.663Z,18.43
2018-09-14T10:22:46.459Z,18.86
2018-09-14T10:23:46.339Z,19.08
2018-09-14T10:24:46.219Z,19.05
2018-09-14T10:25:46.102Z,18.91
2018-09-14T10:26:46.046Z,18.83
2018-09-14T10:27:45.862Z,18.83
2018-09-14T10:28:45.759Z,18.67
2018-09-14T10:29:45.629Z,18.43
2018-09-14T10:30:45.505Z,18.25
2018-09-14T10:31:45.382Z,18.18
2018-09-14T10:32:45.263Z,18.12
2018-09-14T10:33:45.144Z,18.10
2018-09-14T10:34:45.026Z,18.10
2018-09-14T10:35:44.906Z,18.03
2018-09-14T10:36:44.788Z,18.13
2018-09-14T10:37:44.668Z,18.04
2018-09-14T10:38:44.549Z,17.92
2018-09-14T10:39:44.427Z,18.02
2018-09-14T10:40:44.350Z,18.21
2018-09-14T10:41:44.191Z,18.28
2018-09-14T10:42:44.115Z,18.49
2018-09-14T10:43:43.948Z,18.57
2018-09-14T10:44:43.832Z,18.58
2018-09-14T10:45:43.717Z,18.61
2018-09-14T10:46:43.589Z,18.64
2018-09-14T10:47:43.469Z,18.70
2018-09-14T10:48:43.389Z,18.54
2018-09-14T10:49:43.235Z,18.47
2018-09-14T10:50:43.116Z,18.43
2018-09-14T10:51:42.990Z,18.43
2018-09-14T10:52:42.872Z,18.39
2018-09-14T10:53:42.751Z,18.40
2018-09-14T10:54:42.693Z,18.44
2018-09-14T10:55:42.513Z,18.34
2018-09-14T10:56:42.394Z,18.21
2018-09-14T10:57:42.275Z,18.24
2018-09-14T10:58:42.161Z,18.24
2018-09-14T10:59:42.036Z,18.09
2018-09-14T11:00:41.975Z,17.89
2018-09-14T11:01:41.794Z,17.81
2018-09-14T11:02:41.679Z,17.84
2018-09-14T11:03:41.555Z,18.07
2018-09-14T11:04:41.438Z,18.07
2018-09-14T11:05:41.318Z,18.43
2018-09-14T11:06:41.328Z,18.59
2018-09-14T11:07:41.079Z,18.58
2018-09-14T11:08:40.956Z,18.86
2018-09-14T11:09:40.839Z,18.97
2018-09-14T11:10:40.719Z,19.06
2018-09-14T11:11:40.600Z,18.99
2018-09-14T11:12:40.517Z,18.82
2018-09-14T11:13:40.362Z,18.76
2018-09-14T11:14:40.243Z,18.70
2018-09-14T11:15:40.122Z,18.58
2018-09-14T11:16:40.002Z,18.77
2018-09-14T11:17:39.882Z,18.68
2018-09-14T11:18:39.904Z,18.74
2018-09-14T11:19:39.648Z,18.79
2018-09-14T11:20:39.590Z,18.70
2018-09-14T11:21:39.406Z,18.65
2018-09-14T11:22:39.288Z,18.54
2018-09-14T11:23:39.170Z,18.37
2018-09-14T11:24:39.194Z,18.43
2018-09-14T11:25:38.927Z,18.46
2018-09-14T11:26:38.808Z,18.50
2018-09-14T11:27:38.692Z,18.57
2018-09-14T11:28:38.570Z,18.47
2018-09-14T11:29:38.451Z,18.61
2018-09-14T11:30:38.335Z,18.44
2018-09-14T11:31:38.212Z,18.64
2018-09-14T11:32:38.096Z,18.68
2018-09-14T11:33:37.975Z,18.72
2018-09-14T11:34:37.878Z,18.80
2018-09-14T11:35:37.733Z,19.02
2018-09-14T11:36:37.613Z,19.21
2018-09-14T11:37:37.501Z,19.29
2018-09-14T11:38:37.474Z,19.32
2018-09-14T11:39:37.262Z,19.43
2018-09-14T11:40:37.137Z,19.46
2018-09-14T11:41:37.020Z,19.48
2018-09-14T11:42:36.903Z,19.42
2018-09-14T11:43:36.781Z,19.47
2018-09-14T11:44:36.661Z,19.50
2018-09-14T11:45:36.544Z,19.83
2018-09-14T11:46:36.447Z,19.84
2018-09-14T11:47:36.304Z,19.72
2018-09-14T11:48:36.189Z,19.76
2018-09-14T11:49:36.068Z,19.90
2018-09-14T11:50:35.949Z,19.78
2018-09-14T11:51:35.831Z,19.72
2018-09-14T11:52:35.713Z,19.78
2018-09-14T11:53:35.616Z,19.88
2018-09-14T11:54:35.476Z,19.86
2018-09-14T11:55:35.356Z,19.90
2018-09-14T11:56:35.238Z,19.94
2018-09-14T11:57:35.118Z,19.90
2018-09-14T11:58:35.002Z,19.69
2018-09-14T11:59:34.880Z,19.39
2018-09-14T12:00:34.762Z,19.35
2018-09-14T12:01:34.649Z,19.33
2018-09-14T12:02:34.529Z,19.38
2018-09-14T12:03:34.406Z,19.17
2018-09-14T12:04:34.290Z,19.32
2018-09-14T12:05:34.170Z,19.33
2018-09-14T12:06:34.053Z,19.53
2018-09-14T12:07:33.932Z,19.35
2018-09-14T12:08:33.813Z,19.43
2018-09-14T12:09:33.694Z,19.47
2018-09-14T12:10:33.576Z,19.72
2018-09-14T12:11:33.458Z,19.69
2018-09-14T12:12:33.339Z,19.73
2018-09-14T12:13:33.267Z,19.70
2018-09-14T12:14:33.100Z,19.57
2018-09-14T12:15:32.981Z,19.63
2018-09-14T12:16:32.863Z,19.63
2018-09-14T12:17:32.748Z,19.36
2018-09-14T12:18:32.627Z,19.54
2018-09-14T12:19:32.513Z,19.48
2018-09-14T12:20:32.392Z,19.20
2018-09-14T12:21:32.272Z,19.75
2018-09-14T12:22:32.159Z,20.34
2018-09-14T12:23:32.034Z,20.35
2018-09-14T12:24:31.915Z,20.25
2018-09-14T12:25:31.801Z,20.61
2018-09-14T12:26:31.678Z,20.47
2018-09-14T12:27:31.559Z,20.25
2018-09-14T12:28:31.443Z,20.16
2018-09-14T12:29:31.325Z,20.34
2018-09-14T12:30:31.206Z,20.79
2018-09-14T12:31:31.086Z,20.56
2018-09-14T12:32:30.966Z,20.71
2018-09-14T12:33:30.848Z,20.58
2018-09-14T12:34:30.729Z,20.35
2018-09-14T12:35:30.636Z,20.65
2018-09-14T12:36:30.492Z,21.05
2018-09-14T12:37:30.376Z,21.51
2018-09-14T12:38:30.255Z,21.56
2018-09-14T12:39:30.136Z,21.88
2018-09-14T12:40:30.020Z,22.10
2018-09-14T12:41:29.901Z,22.12
2018-09-14T12:42:29.787Z,22.02
2018-09-14T12:43:29.665Z,22.29
2018-09-14T12:44:29.548Z,22.46
2018-09-14T12:45:29.429Z,22.32
2018-09-14T12:46:29.312Z,21.95
2018-09-14T12:47:29.192Z,21.01
2018-09-14T12:48:29.078Z,20.43
2018-09-14T12:49:28.956Z,20.58
2018-09-14T12:50:28.843Z,21.34
2018-09-14T12:51:28.722Z,21.39
2018-09-14T12:52:28.602Z,21.26
2018-09-14T12:53:28.489Z,21.95
2018-09-14T12:54:28.367Z,22.34
2018-09-14T12:55:28.250Z,22.75
2018-09-14T12:56:28.133Z,22.20
2018-09-14T12:57:28.016Z,22.01
2018-09-14T12:58:27.897Z,21.99
2018-09-14T12:59:27.797Z,21.61
2018-09-14T13:00:27.663Z,21.71
2018-09-14T13:01:27.544Z,21.75
2018-09-14T13:02:27.428Z,21.81
2018-09-14T13:03:27.309Z,22.46
2018-09-14T13:04:27.227Z,22.82
2018-09-14T13:05:27.075Z,22.71
2018-09-14T13:06:26.961Z,23.09
2018-09-14T13:07:26.842Z,23.31
2018-09-14T13:08:26.732Z,23.34
2018-09-14T13:09:26.610Z,22.99
2018-09-14T13:10:26.491Z,22.96
2018-09-14T13:11:26.376Z,23.27
2018-09-14T13:12:26.260Z,22.71
2018-09-14T13:13:26.145Z,21.98
2018-09-14T13:14:26.068Z,22.02
2018-09-14T13:15:25.911Z,21.72
2018-09-14T13:16:25.792Z,21.67
2018-09-14T13:17:25.683Z,21.90
2018-09-14T13:18:25.562Z,21.50
2018-09-14T13:19:25.455Z,21.23
2018-09-14T13:20:25.329Z,22.14
2018-09-14T13:21:25.213Z,22.99
2018-09-14T13:22:25.111Z,23.46
2018-09-14T13:23:24.980Z,24.04
2018-09-14T13:24:24.868Z,24.73
2018-09-14T13:25:24.747Z,25.37
2018-09-14T13:26:24.633Z,25.59
2018-09-14T13:27:24.523Z,25.65
2018-09-14T13:28:24.407Z,26.01
2018-09-14T13:29:24.286Z,25.91
2018-09-14T13:30:24.198Z,25.94
2018-09-14T13:31:24.056Z,25.72
2018-09-14T13:32:23.941Z,24.53
2018-09-14T13:33:23.829Z,23.40
2018-09-14T13:34:23.712Z,22.46
2018-09-14T13:35:23.597Z,21.94
2018-09-14T13:36:23.484Z,23.01